Terminal Aerodrome Forecast
Issued by NWS Sioux Falls, SD

Home | Current Version | Previous Version | Text Only | Print | Product List | Glossary On
Versions: 1 2 3 4 5 6 7 8 9 10 11 12 13 14 15 16 17 18 19 20 21 22
000
FTUS43 KFSD 271142
TAFFSD
TAF
KFSD 271142Z 2712/2812 13007KT P6SM SCT100 BKN200
      TEMPO 2712/2714 -TSRA OVC080CB
     FM271400 15011KT P6SM -SHRA SCT080 BKN120
     FM271600 14013G19KT P6SM BKN150
     FM272300 12013KT P6SM -SHRA SCT030 OVC110
     FM280200 10011KT 3SM SHRA BKN020 OVC035
     FM281000 05007KT 2SM -SHRA BR OVC007=

USA.gov is the U.S. government's official web portal to all federal, state and local government web resources and services.